Time;durP1;ratioP1;P1;durP2;ratioP2;P2;SDS_P1;SDS_P2;PMS_P1;PMS_P2;Temp;Humidity;BMP_temperature;BMP_pressure;BME280_temperature;BME280_humidity;BME280_pressure;Samples;Min_cycle;Max_cycle;Signal;HPM_P1;HPM_P2
2021/12/24 00:00:34;;;;;;;64.25;20.15;;;5.40;99.90;;;;;;5077059;28;20060;-59
2021/12/24 00:03:00;;;;;;;61.08;19.35;;;5.40;99.90;;;;;;5076945;28;20536;-59
2021/12/24 00:05:26;;;;;;;60.28;19.13;;;5.40;99.90;;;;;;5077201;28;20052;-59
2021/12/24 00:07:52;;;;;;;71.85;20.45;;;5.50;99.90;;;;;;5075460;28;20083;-58
2021/12/24 00:10:18;;;;;;;73.55;19.42;;;5.50;99.90;;;;;;5076729;28;20052;-59
2021/12/24 00:12:56;;;;;;;71.22;20.55;;;5.50;99.90;;;;;;5076482;28;20512;-59
2021/12/24 00:17:47;;;;;;;67.57;18.83;;;5.50;99.90;;;;;;5076696;28;20044;-59
2021/12/24 00:20:42;;;;;;;62.22;19.00;;;5.50;99.90;;;;;;5077052;28;20052;-58
2021/12/24 00:35:09;;;;;;;68.20;18.58;;;5.60;99.90;;;;;;5076703;28;20633;-59
2021/12/24 00:36:45;;;;;;;81.88;19.73;;;5.60;99.90;;;;;;5061198;28;20132;-60
2021/12/24 00:39:11;;;;;;;53.97;16.30;;;5.60;99.90;;;;;;5075308;28;20079;-59
2021/12/24 00:41:37;;;;;;;60.95;16.55;;;5.60;99.90;;;;;;5076954;28;20086;-59
2021/12/24 00:44:03;;;;;;;64.03;16.05;;;5.60;99.90;;;;;;5075052;28;20048;-59
2021/12/24 00:46:29;;;;;;;50.35;15.38;;;5.60;99.90;;;;;;5076499;28;20106;-59
2021/12/24 00:48:57;;;;;;;51.97;15.80;;;5.70;99.90;;;;;;5075934;28;20094;-58
2021/12/24 00:51:31;;;;;;;55.40;15.48;;;5.70;99.90;;;;;;5090609;28;20051;-58
2021/12/24 00:56:41;;;;;;;47.50;14.38;;;5.70;99.90;;;;;;5080354;28;20052;-58
2021/12/24 00:59:07;;;;;;;56.40;16.02;;;5.70;99.90;;;;;;5079827;28;20074;-59
2021/12/24 01:01:33;;;;;;;54.35;14.93;;;5.80;99.90;;;;;;5080215;28;20069;-58
2021/12/24 01:03:59;;;;;;;57.92;15.70;;;5.80;99.90;;;;;;5078554;28;21006;-58
2021/12/24 01:06:24;;;;;;;50.05;14.48;;;5.80;99.90;;;;;;5079688;28;20052;-58
2021/12/24 01:08:50;;;;;;;59.58;14.82;;;5.80;99.90;;;;;;5079586;28;20048;-59
2021/12/24 01:11:16;;;;;;;45.97;14.43;;;5.80;99.90;;;;;;5079863;28;20076;-56
2021/12/24 01:13:42;;;;;;;49.45;14.18;;;5.90;99.90;;;;;;5079522;28;20040;-58
2021/12/24 01:16:24;;;;;;;46.58;14.18;;;5.90;99.90;;;;;;5079705;28;20118;-58
2021/12/24 01:21:39;;;;;;;46.25;14.32;;;5.90;99.90;;;;;;5079496;28;20112;-59
2021/12/24 01:24:10;;;;;;;48.75;13.32;;;5.90;99.90;;;;;;5079825;28;20051;-58
2021/12/24 01:27:07;;;;;;;47.67;13.80;;;6.00;99.90;;;;;;5078269;28;20044;-59
2021/12/24 01:40:24;;;;;;;39.45;12.05;;;6.00;99.90;;;;;;5078287;28;20048;-60
2021/12/24 01:42:50;;;;;;;43.25;12.93;;;6.10;99.90;;;;;;5079218;28;20044;-59
2021/12/24 01:45:28;;;;;;;43.17;13.38;;;6.10;99.90;;;;;;5079857;28;20055;-58
2021/12/24 01:48:03;;;;;;;38.10;12.27;;;6.10;99.90;;;;;;5079756;28;20048;-59
2021/12/24 01:50:33;;;;;;;49.20;14.00;;;6.10;99.90;;;;;;5086738;28;20092;-59
2021/12/24 01:53:01;;;;;;;50.30;13.52;;;6.10;99.90;;;;;;5100037;28;20051;-60
2021/12/24 01:55:27;;;;;;;37.80;11.63;;;6.20;99.90;;;;;;5086126;28;20040;-59
2021/12/24 01:57:53;;;;;;;40.67;11.73;;;6.20;99.90;;;;;;5079431;28;20810;-60
2021/12/24 02:00:27;;;;;;;32.22;10.88;;;6.20;99.90;;;;;;5079250;28;20700;-58
2021/12/24 02:02:53;;;;;;;36.53;11.48;;;6.20;99.90;;;;;;5079409;28;20040;-57
2021/12/24 02:05:19;;;;;;;35.70;10.57;;;6.20;99.90;;;;;;5078847;28;20055;-59
2021/12/24 02:07:45;;;;;;;32.15;9.93;;;6.30;99.90;;;;;;5079272;28;20060;-59
2021/12/24 02:10:14;;;;;;;34.15;10.63;;;6.30;99.90;;;;;;5078943;28;20471;-58
2021/12/24 02:12:40;;;;;;;29.85;10.18;;;6.30;99.90;;;;;;5078942;28;20048;-59
2021/12/24 02:15:13;;;;;;;41.15;10.23;;;6.40;99.90;;;;;;5078825;28;20051;-59
2021/12/24 02:30:48;;;;;;;33.47;9.60;;;6.60;99.90;;;;;;5078835;28;20049;-58
2021/12/24 02:33:15;;;;;;;32.60;10.25;;;6.50;99.90;;;;;;5077630;28;20382;-58
2021/12/24 02:35:41;;;;;;;29.17;9.93;;;6.50;99.90;;;;;;5078586;28;20057;-58
2021/12/24 02:38:07;;;;;;;26.70;9.65;;;6.60;99.90;;;;;;5076868;28;20044;-58
2021/12/24 02:40:34;;;;;;;34.92;11.18;;;6.60;99.90;;;;;;5078569;28;20036;-58
2021/12/24 02:43:00;;;;;;;39.00;11.10;;;6.60;99.90;;;;;;5078335;28;20049;-59
2021/12/24 02:45:29;;;;;;;31.20;10.90;;;6.60;99.90;;;;;;5078438;28;20051;-58
2021/12/24 02:55:33;;;;;;;35.45;12.88;;;6.70;99.90;;;;;;5084225;28;20090;-58
2021/12/24 02:57:59;;;;;;;40.40;13.75;;;6.80;99.90;;;;;;5076615;28;20045;-59
2021/12/24 03:00:27;;;;;;;37.78;12.70;;;6.80;99.90;;;;;;5076671;28;20048;-58
2021/12/24 03:02:54;;;;;;;45.35;13.95;;;6.90;99.90;;;;;;5078469;28;20074;-58
2021/12/24 03:05:23;;;;;;;53.40;16.95;;;6.90;99.90;;;;;;5078545;28;20048;-59
2021/12/24 03:07:49;;;;;;;41.05;13.32;;;6.90;99.90;;;;;;5078032;28;20084;-58
2021/12/24 03:10:18;;;;;;;43.03;14.25;;;6.90;99.90;;;;;;5077859;28;20108;-58
2021/12/24 03:12:47;;;;;;;57.60;15.43;;;6.90;99.90;;;;;;5077338;28;20076;-58
2021/12/24 03:15:15;;;;;;;57.92;17.40;;;7.00;99.90;;;;;;5077618;28;20048;-58
2021/12/24 03:17:49;;;;;;;68.18;19.38;;;7.10;99.90;;;;;;5077074;28;20036;-58
2021/12/24 03:20:15;;;;;;;59.03;17.10;;;7.00;99.90;;;;;;5077947;28;20051;-58
2021/12/24 03:23:04;;;;;;;80.10;20.73;;;7.10;99.90;;;;;;5077574;28;20072;-58
2021/12/24 03:25:26;;;;;;;75.68;20.10;;;7.10;99.90;;;;;;5075189;28;20052;-58
2021/12/24 03:27:52;;;;;;;84.57;19.45;;;7.10;99.90;;;;;;5077075;28;20048;-57
2021/12/24 03:30:18;;;;;;;84.82;20.20;;;7.10;99.90;;;;;;5075750;28;20045;-58
2021/12/24 03:32:43;;;;;;;121.00;23.92;;;7.10;99.90;;;;;;5077532;28;20100;-58
2021/12/24 03:35:09;;;;;;;148.00;26.90;;;7.30;99.90;;;;;;5076236;28;20054;-58
2021/12/24 03:37:35;;;;;;;132.60;25.73;;;7.30;99.90;;;;;;5077354;28;20075;-58
2021/12/24 03:40:02;;;;;;;103.85;22.90;;;7.30;99.90;;;;;;5077660;28;20060;-58
2021/12/24 03:42:28;;;;;;;122.05;25.17;;;7.30;99.90;;;;;;5077459;28;20049;-59
2021/12/24 03:45:05;;;;;;;110.57;24.92;;;7.30;99.90;;;;;;5076964;28;20045;-59
2021/12/24 03:47:36;;;;;;;115.82;25.48;;;7.30;99.90;;;;;;5077225;28;20660;-59
2021/12/24 03:50:08;;;;;;;113.90;25.83;;;7.30;99.90;;;;;;5080839;28;20036;-59
2021/12/24 03:55:19;;;;;;;131.18;24.88;;;7.40;99.90;;;;;;5085038;28;20047;-58
2021/12/24 03:57:47;;;;;;;143.27;26.42;;;7.30;99.90;;;;;;5076914;28;20049;-59
2021/12/24 04:00:15;;;;;;;127.38;23.92;;;7.30;99.90;;;;;;5076988;28;20059;-58
2021/12/24 04:02:41;;;;;;;109.63;25.30;;;7.40;99.90;;;;;;5077489;28;20048;-59
2021/12/24 04:05:09;;;;;;;127.90;26.60;;;7.50;99.90;;;;;;5077214;28;20072;-58
2021/12/24 04:07:34;;;;;;;129.50;26.52;;;7.60;99.90;;;;;;5077235;28;20093;-58
2021/12/24 04:12:27;;;;;;;111.47;24.48;;;7.50;99.90;;;;;;5077035;28;20057;-58
2021/12/24 04:14:53;;;;;;;122.78;25.77;;;7.70;99.90;;;;;;5075041;28;20076;-58
2021/12/24 04:17:21;;;;;;;114.90;25.00;;;7.60;99.90;;;;;;5076702;28;20059;-58
2021/12/24 04:25:15;;;;;;;100.85;24.50;;;7.70;99.90;;;;;;5076938;28;20079;-59
2021/12/24 04:27:41;;;;;;;98.35;25.02;;;7.70;99.90;;;;;;5078000;28;20056;-58
2021/12/24 04:30:14;;;;;;;82.60;24.77;;;7.70;99.90;;;;;;5080772;28;20045;-59
2021/12/24 04:35:19;;;;;;;85.18;24.58;;;7.80;99.90;;;;;;5079893;28;20480;-59
2021/12/24 04:51:45;;;;;;;93.57;30.02;;;7.90;99.90;;;;;;5097339;28;20459;-57
2021/12/24 05:04:56;;;;;;;85.95;27.17;;;8.00;99.90;;;;;;5078779;28;20072;-58
2021/12/24 05:09:48;;;;;;;69.97;26.75;;;8.00;99.90;;;;;;5080219;28;20071;-58
2021/12/24 05:12:14;;;;;;;78.22;26.60;;;7.90;99.90;;;;;;5080229;28;20075;-58
2021/12/24 05:14:40;;;;;;;77.18;30.80;;;8.00;99.90;;;;;;5078760;28;20063;-59
2021/12/24 05:17:29;;;;;;;84.22;29.13;;;7.90;99.90;;;;;;5078115;28;20122;-58
2021/12/24 05:22:39;;;;;;;84.80;29.55;;;8.00;99.90;;;;;;5080142;28;20056;-58
2021/12/24 05:25:05;;;;;;;82.53;28.73;;;8.00;99.90;;;;;;5078067;28;20044;-58
2021/12/24 05:27:31;;;;;;;86.55;29.65;;;7.90;99.90;;;;;;5078176;28;20100;-58
2021/12/24 05:29:57;;;;;;;70.57;26.80;;;8.00;99.90;;;;;;5079645;28;20049;-58
2021/12/24 05:32:25;;;;;;;83.90;29.13;;;8.00;99.90;;;;;;5078413;28;20041;-58
2021/12/24 05:34:51;;;;;;;68.93;27.58;;;8.00;99.90;;;;;;5079793;28;20503;-59
2021/12/24 05:37:17;;;;;;;75.57;26.23;;;8.10;99.90;;;;;;5079691;28;20040;-58
2021/12/24 05:39:43;;;;;;;63.80;25.42;;;8.00;99.90;;;;;;5078627;28;20048;-57
2021/12/24 05:42:09;;;;;;;57.47;23.75;;;8.00;99.90;;;;;;5061444;28;20044;-58
2021/12/24 05:44:35;;;;;;;57.92;24.13;;;8.10;99.90;;;;;;5079214;28;20078;-58
2021/12/24 05:47:01;;;;;;;57.58;23.02;;;8.00;99.90;;;;;;5079366;28;20067;-58
2021/12/24 05:49:27;;;;;;;58.83;23.13;;;8.00;99.90;;;;;;5079304;28;20040;-59
2021/12/24 05:51:53;;;;;;;59.95;21.10;;;8.00;99.90;;;;;;5098017;28;20046;-58
2021/12/24 05:54:19;;;;;;;56.92;21.27;;;8.00;99.90;;;;;;5095313;28;20044;-58
2021/12/24 05:56:45;;;;;;;63.35;21.08;;;8.00;99.90;;;;;;5078227;28;20047;-58
2021/12/24 05:59:12;;;;;;;58.50;21.90;;;8.00;99.90;;;;;;5077618;28;20047;-59
2021/12/24 06:01:37;;;;;;;56.80;20.13;;;8.00;99.90;;;;;;5079224;28;20056;-59
2021/12/24 06:04:03;;;;;;;50.33;18.13;;;8.00;99.90;;;;;;5078745;28;20093;-58
2021/12/24 06:06:29;;;;;;;58.22;20.13;;;8.00;99.90;;;;;;5078665;28;20052;-58
2021/12/24 06:08:56;;;;;;;53.17;18.20;;;8.00;99.90;;;;;;5077190;28;20044;-59
2021/12/24 06:11:22;;;;;;;51.88;18.67;;;8.00;99.90;;;;;;5077672;28;20135;-58
2021/12/24 06:13:52;;;;;;;52.70;16.92;;;7.90;99.90;;;;;;5078707;28;20059;-58
2021/12/24 06:16:19;;;;;;;50.17;16.83;;;7.90;99.90;;;;;;5077413;28;20044;-61
2021/12/24 06:18:45;;;;;;;38.03;15.13;;;7.90;99.90;;;;;;5077591;28;20045;-58
2021/12/24 06:21:11;;;;;;;52.63;16.60;;;7.90;99.90;;;;;;5078452;28;20094;-58
2021/12/24 06:23:38;;;;;;;50.92;16.58;;;8.00;99.90;;;;;;5078533;28;20078;-58
2021/12/24 06:26:05;;;;;;;40.38;13.73;;;7.90;99.90;;;;;;5078501;28;20548;-59
2021/12/24 06:28:32;;;;;;;37.83;13.10;;;7.90;99.90;;;;;;5078609;28;20048;-59
2021/12/24 06:30:58;;;;;;;46.30;14.52;;;7.90;99.90;;;;;;5078706;28;20048;-58
2021/12/24 06:33:25;;;;;;;44.67;15.82;;;7.90;99.90;;;;;;5078398;28;20056;-59
2021/12/24 06:35:56;;;;;;;40.92;15.02;;;7.90;99.90;;;;;;5078469;28;20040;-60
2021/12/24 06:38:25;;;;;;;32.37;12.53;;;7.90;99.90;;;;;;5078010;28;20052;-59
2021/12/24 06:40:52;;;;;;;40.65;13.70;;;7.90;99.90;;;;;;5078251;28;21132;-59
2021/12/24 06:43:17;;;;;;;39.75;15.10;;;7.90;99.90;;;;;;5077946;28;20044;-59
2021/12/24 06:45:46;;;;;;;35.42;13.40;;;7.80;99.90;;;;;;5078441;28;20036;-59
2021/12/24 06:48:13;;;;;;;37.38;12.52;;;7.90;99.90;;;;;;5078250;28;20055;-59
2021/12/24 06:50:38;;;;;;;38.45;12.43;;;7.90;99.90;;;;;;5086135;28;20539;-58
2021/12/24 06:53:04;;;;;;;41.70;14.45;;;7.80;99.90;;;;;;5096819;28;20044;-59
2021/12/24 06:55:30;;;;;;;37.70;13.88;;;7.90;99.90;;;;;;5083483;28;20066;-58
2021/12/24 06:57:58;;;;;;;45.58;13.93;;;7.80;99.90;;;;;;5076722;28;20052;-58
2021/12/24 07:00:25;;;;;;;39.25;13.80;;;7.80;99.90;;;;;;5077862;28;20075;-58
2021/12/24 07:02:51;;;;;;;40.03;13.90;;;7.80;99.90;;;;;;5076773;28;20635;-58
2021/12/24 07:05:17;;;;;;;43.35;14.57;;;7.80;99.90;;;;;;5074797;28;20037;-59
2021/12/24 07:07:43;;;;;;;39.33;14.65;;;7.80;99.90;;;;;;5074424;28;20127;-59
2021/12/24 07:10:09;;;;;;;42.03;13.98;;;7.80;99.90;;;;;;5074077;28;20939;-59
2021/12/24 07:12:35;;;;;;;44.22;14.85;;;7.80;99.90;;;;;;5074314;28;20071;-58
2021/12/24 07:15:01;;;;;;;44.08;14.35;;;7.70;99.90;;;;;;5073496;28;20070;-59
2021/12/24 07:17:27;;;;;;;41.78;14.27;;;7.70;99.90;;;;;;5074189;28;20047;-58
2021/12/24 07:19:52;;;;;;;37.20;13.85;;;7.70;99.90;;;;;;5074443;28;20059;-58
2021/12/24 07:22:18;;;;;;;40.72;14.60;;;7.70;99.90;;;;;;5074416;28;20052;-58
2021/12/24 07:24:45;;;;;;;30.55;12.95;;;7.70;99.90;;;;;;5074115;28;20108;-58
2021/12/24 07:27:11;;;;;;;37.05;13.07;;;7.70;99.90;;;;;;5072573;28;20103;-59
2021/12/24 07:29:37;;;;;;;45.50;15.30;;;7.70;99.90;;;;;;5072646;28;20036;-58
2021/12/24 07:32:04;;;;;;;31.50;12.25;;;7.70;99.90;;;;;;5073761;28;20051;-58
2021/12/24 07:34:30;;;;;;;33.80;12.30;;;7.60;99.90;;;;;;5073818;28;20562;-59
2021/12/24 07:36:56;;;;;;;35.63;13.30;;;7.60;99.90;;;;;;5074120;28;20422;-58
2021/12/24 07:39:22;;;;;;;29.80;11.70;;;7.60;99.90;;;;;;5073519;28;20520;-58
2021/12/24 07:41:48;;;;;;;27.63;10.98;;;7.60;99.90;;;;;;5072588;28;20058;-58
2021/12/24 07:44:16;;;;;;;26.33;10.57;;;7.70;99.90;;;;;;5073909;28;20665;-58
2021/12/24 07:46:48;;;;;;;22.65;10.45;;;7.70;99.90;;;;;;5080943;28;20044;-58
2021/12/24 07:52:08;;;;;;;22.92;9.38;;;7.60;99.90;;;;;;5079687;28;20052;-58
2021/12/24 07:54:48;;;;;;;27.40;9.93;;;7.60;99.90;;;;;;5081692;28;20040;-58
2021/12/24 07:57:15;;;;;;;25.52;9.25;;;7.60;99.90;;;;;;5081001;28;20147;-58
2021/12/24 07:59:44;;;;;;;27.05;9.27;;;7.60;99.90;;;;;;5053897;28;20045;-59
2021/12/24 08:02:14;;;;;;;24.92;9.93;;;7.50;99.90;;;;;;5051702;28;20320;-59
2021/12/24 08:04:41;;;;;;;21.33;9.40;;;7.50;99.90;;;;;;5053460;28;20071;-58
2021/12/24 08:07:07;;;;;;;25.30;10.63;;;7.50;99.90;;;;;;5053870;28;20052;-59
2021/12/24 08:09:37;;;;;;;26.73;10.07;;;7.50;99.90;;;;;;5053950;28;20490;-60
2021/12/24 08:12:07;;;;;;;23.50;10.27;;;7.50;99.90;;;;;;5053861;28;20108;-58
2021/12/24 08:14:34;;;;;;;30.00;11.50;;;7.50;99.90;;;;;;5053442;28;20093;-59
2021/12/24 08:17:01;;;;;;;26.67;11.20;;;7.50;99.90;;;;;;5053833;28;20068;-59
2021/12/24 08:19:26;;;;;;;31.60;11.60;;;7.50;99.90;;;;;;5054075;28;20109;-59
2021/12/24 08:21:52;;;;;;;28.35;10.45;;;7.50;99.90;;;;;;5053924;28;20069;-59
2021/12/24 08:24:18;;;;;;;30.77;12.00;;;7.50;99.90;;;;;;5054284;28;20053;-59
2021/12/24 08:26:44;;;;;;;27.55;11.80;;;7.50;99.90;;;;;;5053692;28;20044;-59
2021/12/24 08:29:10;;;;;;;25.85;10.95;;;7.50;99.90;;;;;;5053468;28;20068;-60
2021/12/24 08:31:36;;;;;;;29.42;10.93;;;7.50;99.90;;;;;;5053553;28;20045;-60
2021/12/24 08:34:04;;;;;;;28.95;9.82;;;7.50;99.90;;;;;;5053606;28;20126;-59
2021/12/24 08:36:30;;;;;;;29.20;12.07;;;7.50;99.90;;;;;;5053977;28;20049;-59
2021/12/24 08:38:56;;;;;;;32.35;9.80;;;7.50;99.90;;;;;;5053382;28;20094;-59
2021/12/24 08:41:23;;;;;;;36.08;10.80;;;7.50;99.90;;;;;;5053887;28;20099;-60
2021/12/24 08:43:50;;;;;;;25.65;11.05;;;7.50;99.90;;;;;;5053498;28;20048;-59
2021/12/24 08:46:16;;;;;;;25.67;9.80;;;7.50;99.90;;;;;;5053690;28;20042;-59
2021/12/24 08:48:42;;;;;;;28.67;10.90;;;7.50;99.90;;;;;;5053537;28;20055;-59
2021/12/24 08:51:08;;;;;;;30.77;10.98;;;7.50;99.90;;;;;;5077596;28;20104;-60
2021/12/24 08:53:33;;;;;;;27.25;10.60;;;7.50;99.90;;;;;;5093609;28;20044;-59
2021/12/24 08:55:59;;;;;;;30.05;10.30;;;7.50;99.90;;;;;;5075935;28;20044;-63
2021/12/24 08:58:25;;;;;;;27.35;10.98;;;7.50;99.90;;;;;;5073633;28;20336;-60
2021/12/24 09:00:51;;;;;;;35.88;11.20;;;7.50;99.90;;;;;;5073597;28;20047;-59
2021/12/24 09:03:19;;;;;;;33.28;10.20;;;7.50;99.90;;;;;;5071710;28;20102;-59
2021/12/24 09:05:45;;;;;;;39.92;11.43;;;7.50;99.90;;;;;;5072227;28;20058;-63
2021/12/24 09:08:11;;;;;;;31.95;10.60;;;7.50;99.90;;;;;;5072651;28;20049;-60
2021/12/24 09:10:38;;;;;;;26.00;8.93;;;7.40;99.90;;;;;;5071350;28;20052;-60
2021/12/24 09:13:04;;;;;;;34.50;10.60;;;7.50;99.90;;;;;;5072525;28;20084;-60
2021/12/24 09:15:30;;;;;;;23.30;9.52;;;7.50;99.90;;;;;;5075332;28;20048;-60
2021/12/24 09:18:02;;;;;;;33.53;11.38;;;7.40;99.90;;;;;;5076929;28;20056;-60
2021/12/24 09:20:35;;;;;;;27.23;9.27;;;7.40;99.90;;;;;;5076676;28;20049;-60
2021/12/24 09:23:02;;;;;;;20.35;8.40;;;7.40;99.90;;;;;;5076510;28;20079;-61
2021/12/24 09:25:29;;;;;;;22.33;8.55;;;7.40;99.90;;;;;;5076988;28;20072;-60
2021/12/24 09:27:56;;;;;;;21.98;8.05;;;7.40;99.90;;;;;;5076669;28;20064;-60
2021/12/24 09:30:23;;;;;;;19.20;7.60;;;7.40;99.90;;;;;;5076270;28;20500;-59
2021/12/24 09:32:49;;;;;;;19.75;8.57;;;7.40;99.90;;;;;;5076240;28;20074;-59
2021/12/24 09:35:15;;;;;;;16.17;7.20;;;7.30;99.90;;;;;;5074839;28;20049;-60
2021/12/24 09:37:41;;;;;;;11.38;5.05;;;7.30;99.90;;;;;;5076317;28;20056;-60
2021/12/24 09:40:09;;;;;;;9.32;4.75;;;7.00;99.90;;;;;;5075791;28;20048;-60
2021/12/24 09:42:35;;;;;;;13.27;5.18;;;6.80;99.90;;;;;;5084269;28;20094;-60
2021/12/24 09:45:03;;;;;;;17.92;5.28;;;6.70;99.90;;;;;;5086730;28;20032;-60
2021/12/24 09:47:29;;;;;;;10.80;4.90;;;6.70;99.90;;;;;;5082298;28;20628;-60
2021/12/24 09:49:55;;;;;;;15.10;5.50;;;6.60;99.90;;;;;;5087449;28;20047;-60
2021/12/24 09:52:21;;;;;;;15.23;5.10;;;6.50;99.90;;;;;;5085297;28;20052;-60
2021/12/24 09:54:49;;;;;;;17.85;5.40;;;6.40;99.90;;;;;;5084635;28;20092;-60
2021/12/24 09:57:15;;;;;;;13.65;5.15;;;6.50;99.90;;;;;;5051350;28;20097;-59
2021/12/24 09:59:41;;;;;;;13.55;5.43;;;6.50;99.90;;;;;;5084898;28;20041;-60
2021/12/24 10:02:13;;;;;;;11.45;4.35;;;6.50;99.90;;;;;;5084533;28;20043;-60
2021/12/24 10:04:39;;;;;;;12.95;4.63;;;6.40;99.90;;;;;;5085192;28;20519;-59
2021/12/24 10:07:08;;;;;;;9.30;4.22;;;6.40;99.90;;;;;;5087051;28;20100;-61
2021/12/24 10:09:44;;;;;;;8.23;4.10;;;6.40;99.90;;;;;;5085064;28;20041;-60
2021/12/24 10:12:17;;;;;;;8.32;3.90;;;6.30;99.90;;;;;;5082170;28;20048;-60
2021/12/24 10:14:53;;;;;;;10.68;4.22;;;6.40;99.90;;;;;;5084056;28;20059;-60
2021/12/24 10:17:21;;;;;;;10.23;4.50;;;6.40;99.90;;;;;;5084251;28;20104;-60
2021/12/24 10:19:56;;;;;;;9.93;4.28;;;6.30;99.90;;;;;;5084109;28;20082;-60
2021/12/24 10:22:23;;;;;;;11.13;4.32;;;6.30;99.90;;;;;;5085032;28;20739;-59
2021/12/24 10:25:08;;;;;;;10.20;5.07;;;6.30;99.90;;;;;;5078009;28;20052;-60
2021/12/24 10:27:35;;;;;;;10.98;5.05;;;6.20;99.90;;;;;;5075054;28;20584;-60
2021/12/24 10:30:22;;;;;;;9.95;5.18;;;6.10;99.90;;;;;;5075096;28;20072;-59
2021/12/24 10:32:52;;;;;;;10.55;5.00;;;6.10;99.90;;;;;;5075598;28;20151;-60
2021/12/24 10:35:25;;;;;;;15.23;7.32;;;6.00;99.90;;;;;;5075179;28;20087;-59
2021/12/24 10:38:14;;;;;;;12.63;5.90;;;6.10;99.90;;;;;;5075045;28;20043;-59
2021/12/24 10:40:55;;;;;;;9.82;4.20;;;6.20;99.90;;;;;;5074539;28;20049;-60
2021/12/24 10:43:36;;;;;;;10.30;5.30;;;6.10;99.90;;;;;;5074822;28;20072;-59
2021/12/24 10:46:18;;;;;;;11.27;5.30;;;6.10;99.90;;;;;;5074948;28;20044;-59
2021/12/24 10:49:16;;;;;;;14.10;5.28;;;6.10;99.90;;;;;;5073332;28;20052;-59
2021/12/24 10:52:11;;;;;;;11.98;5.68;;;6.10;99.90;;;;;;5091636;28;20071;-59
2021/12/24 10:54:57;;;;;;;11.68;4.95;;;6.10;99.90;;;;;;5088936;28;20055;-59
2021/12/24 10:57:27;;;;;;;15.90;7.90;;;6.10;99.90;;;;;;5074819;28;20053;-60
2021/12/24 10:59:56;;;;;;;17.25;7.65;;;5.90;99.90;;;;;;5074742;28;20040;-59
2021/12/24 11:02:28;;;;;;;17.75;7.45;;;6.00;99.90;;;;;;5085023;28;20102;-60
2021/12/24 11:04:54;;;;;;;;;;;5.90;99.90;;;;;;5080825;28;20048;-59
2021/12/24 11:07:38;;;;;;;16.48;8.60;;;5.90;99.90;;;;;;5081999;28;20062;-59
2021/12/24 11:10:14;;;;;;;17.13;9.18;;;6.00;99.90;;;;;;5084364;28;20451;-59
2021/12/24 11:12:42;;;;;;;19.75;8.40;;;6.00;99.90;;;;;;5085683;28;20049;-59
2021/12/24 11:15:36;;;;;;;51.65;22.40;;;6.00;99.90;;;;;;5080696;28;20044;-59
2021/12/24 11:18:15;;;;;;;16.00;7.60;;;5.90;99.90;;;;;;5084131;28;20052;-59
2021/12/24 11:20:41;;;;;;;16.20;8.15;;;5.90;99.90;;;;;;5079579;28;20051;-59
2021/12/24 11:23:10;;;;;;;27.00;21.63;;;6.00;99.90;;;;;;5075763;28;20045;-59
2021/12/24 11:25:42;;;;;;;15.05;10.52;;;5.80;99.90;;;;;;5077340;28;20041;-59
2021/12/24 11:28:10;;;;;;;14.57;8.02;;;5.80;99.90;;;;;;5076243;28;20098;-59
2021/12/24 11:30:38;;;;;;;11.52;5.88;;;5.90;99.90;;;;;;5076198;28;20052;-59
2021/12/24 11:33:04;;;;;;;11.50;5.30;;;5.90;99.90;;;;;;5077788;28;20461;-59
2021/12/24 11:35:31;;;;;;;9.45;4.40;;;5.90;99.90;;;;;;5076389;28;20048;-59
2021/12/24 11:37:59;;;;;;;9.43;4.55;;;5.90;99.90;;;;;;5076820;28;20513;-60
2021/12/24 11:40:27;;;;;;;9.80;4.85;;;5.90;99.90;;;;;;5077525;28;20465;-59
2021/12/24 11:43:00;;;;;;;11.35;5.00;;;5.90;99.90;;;;;;5076920;28;20028;-60
2021/12/24 11:45:28;;;;;;;17.30;5.88;;;5.90;99.90;;;;;;5077593;28;20474;-60
2021/12/24 11:47:55;;;;;;;12.30;5.63;;;6.00;99.90;;;;;;5076175;28;20041;-59
2021/12/24 11:50:23;;;;;;;12.23;5.05;;;6.00;99.90;;;;;;5082209;28;20411;-60
2021/12/24 11:52:53;;;;;;;9.18;4.88;;;5.90;99.90;;;;;;5097558;28;20453;-59
2021/12/24 11:55:20;;;;;;;9.10;4.72;;;5.80;99.90;;;;;;5085064;28;20377;-59
2021/12/24 11:58:06;;;;;;;9.18;4.22;;;5.70;99.90;;;;;;5077250;28;20510;-59
2021/12/24 12:00:41;;;;;;;9.50;5.18;;;5.80;99.90;;;;;;5076032;28;20139;-59
2021/12/24 12:03:10;;;;;;;10.15;4.85;;;5.70;99.90;;;;;;5077214;28;20082;-59
2021/12/24 12:05:41;;;;;;;10.75;5.45;;;5.70;99.90;;;;;;5077345;28;20054;-59
2021/12/24 12:08:25;;;;;;;10.43;6.20;;;5.70;99.90;;;;;;5075251;28;20062;-59
2021/12/24 12:10:55;;;;;;;10.90;6.00;;;5.70;99.90;;;;;;5076979;28;20120;-59
2021/12/24 12:13:57;;;;;;;10.45;5.57;;;5.70;99.90;;;;;;5076653;28;20051;-59
2021/12/24 12:16:42;;;;;;;9.48;4.75;;;5.70;99.90;;;;;;5076660;28;20063;-59
2021/12/24 12:19:16;;;;;;;8.57;4.35;;;5.60;99.90;;;;;;5076827;28;20052;-59
2021/12/24 12:22:14;;;;;;;7.85;4.40;;;5.60;99.90;;;;;;5076974;28;20104;-59
2021/12/24 12:24:58;;;;;;;14.07;5.88;;;5.70;99.90;;;;;;5071971;28;20567;-59
2021/12/24 12:27:28;;;;;;;15.25;5.85;;;5.70;99.90;;;;;;5076588;28;20108;-59
2021/12/24 12:29:54;;;;;;;12.45;5.82;;;5.70;99.90;;;;;;5076675;28;20098;-59
2021/12/24 12:32:26;;;;;;;12.05;5.60;;;5.80;99.90;;;;;;5076925;28;20855;-59
2021/12/24 12:34:59;;;;;;;9.68;5.32;;;5.80;99.90;;;;;;5077266;28;20084;-59
2021/12/24 12:37:40;;;;;;;8.35;4.28;;;5.80;99.90;;;;;;5077147;28;20044;-58
2021/12/24 12:40:34;;;;;;;8.30;4.22;;;5.80;99.90;;;;;;5076660;28;20054;-59
2021/12/24 12:43:05;;;;;;;8.80;4.32;;;5.80;99.90;;;;;;5076661;28;20460;-59
2021/12/24 12:45:35;;;;;;;7.65;3.97;;;5.90;99.90;;;;;;5076884;28;20052;-59
2021/12/24 12:48:04;;;;;;;8.43;4.55;;;5.80;99.90;;;;;;5076703;28;20428;-59
2021/12/24 12:50:30;;;;;;;11.38;5.38;;;5.90;99.90;;;;;;5090188;28;20570;-59
2021/12/24 12:53:28;;;;;;;10.27;5.05;;;5.90;99.90;;;;;;5089510;28;20455;-59
2021/12/24 12:56:17;;;;;;;9.27;4.63;;;5.90;99.90;;;;;;5085635;28;20048;-59
2021/12/24 12:58:56;;;;;;;9.73;4.82;;;6.00;99.90;;;;;;5088645;28;20120;-60
2021/12/24 13:01:22;;;;;;;9.50;4.93;;;5.90;99.90;;;;;;5088805;28;20078;-59
2021/12/24 13:04:09;;;;;;;10.63;6.40;;;6.00;99.90;;;;;;5088519;28;20044;-60
2021/12/24 13:06:36;;;;;;;10.07;5.00;;;6.00;99.90;;;;;;5089849;28;20078;-60
2021/12/24 13:09:05;;;;;;;9.32;5.20;;;6.00;99.90;;;;;;5088758;28;20523;-60
2021/12/24 13:11:44;;;;;;;9.25;5.93;;;6.10;99.90;;;;;;5089019;28;20055;-59
2021/12/24 13:14:11;;;;;;;9.98;5.28;;;6.00;99.90;;;;;;5088988;28;20138;-59
2021/12/24 13:16:43;;;;;;;11.15;5.00;;;5.90;99.90;;;;;;5098374;28;20499;-59
2021/12/24 13:19:24;;;;;;;10.38;5.38;;;6.00;99.90;;;;;;5093953;28;20044;-59
2021/12/24 13:24:55;;;;;;;10.90;4.57;;;6.00;99.90;;;;;;5098631;28;20040;-59
2021/12/24 13:27:25;;;;;;;12.77;4.88;;;6.00;99.90;;;;;;5098468;28;20266;-59
2021/12/24 13:30:14;;;;;;;10.98;4.20;;;6.10;99.90;;;;;;5099338;28;20044;-59
2021/12/24 13:33:06;;;;;;;9.45;4.13;;;6.10;99.90;;;;;;5098827;28;20100;-61
2021/12/24 13:35:40;;;;;;;8.73;3.13;;;6.00;99.90;;;;;;5098228;28;20880;-59
2021/12/24 13:38:28;;;;;;;7.75;3.20;;;6.10;99.90;;;;;;5097982;28;20087;-59
2021/12/24 13:40:55;;;;;;;6.28;2.60;;;6.10;99.90;;;;;;5099470;28;20073;-59
2021/12/24 13:43:22;;;;;;;7.68;2.83;;;6.10;99.90;;;;;;5098123;28;20044;-59
2021/12/24 13:45:50;;;;;;;6.30;2.22;;;6.10;99.90;;;;;;5099689;28;20028;-59
2021/12/24 13:48:30;;;;;;;6.20;2.17;;;6.00;99.90;;;;;;5098000;28;20109;-60
2021/12/24 13:56:41;;;;;;;4.80;1.85;;;6.00;99.90;;;;;;5058765;28;20123;-60
2021/12/24 13:59:08;;;;;;;5.72;2.10;;;6.00;99.90;;;;;;5058631;28;20560;-59
2021/12/24 14:01:34;;;;;;;6.07;2.03;;;6.00;99.90;;;;;;5058118;28;20489;-61
2021/12/24 14:04:02;;;;;;;6.30;1.75;;;6.00;99.90;;;;;;5058511;28;20044;-59
2021/12/24 14:06:32;;;;;;;4.50;1.55;;;6.00;99.90;;;;;;5058923;28;20102;-60
2021/12/24 14:09:11;;;;;;;3.17;1.50;;;6.00;99.90;;;;;;5058676;28;20052;-59
2021/12/24 14:11:37;;;;;;;5.22;1.50;;;6.00;99.90;;;;;;5058586;28;20064;-59
2021/12/24 14:14:10;;;;;;;3.33;1.17;;;6.00;99.90;;;;;;5058793;28;20055;-59
2021/12/24 14:19:16;;;;;;;4.95;1.10;;;6.00;99.90;;;;;;5057902;28;20051;-59
2021/12/24 14:21:46;;;;;;;5.38;1.00;;;6.00;99.90;;;;;;5058473;28;20075;-59
2021/12/24 14:24:33;;;;;;;7.22;1.10;;;5.90;99.90;;;;;;5058304;28;20639;-59
2021/12/24 14:27:00;;;;;;;5.53;1.10;;;5.80;99.90;;;;;;5058780;28;20053;-60
2021/12/24 14:29:28;;;;;;;6.82;1.10;;;5.80;99.90;;;;;;5058228;28;20091;-59
2021/12/24 14:32:00;;;;;;;4.00;1.00;;;5.70;99.90;;;;;;5058348;28;20046;-58
2021/12/24 14:34:44;;;;;;;3.28;0.70;;;5.70;99.90;;;;;;5057813;28;20041;-59
2021/12/24 14:37:33;;;;;;;1.90;0.55;;;5.60;99.90;;;;;;5058405;28;20497;-59
2021/12/24 14:40:01;;;;;;;2.80;0.68;;;5.60;99.90;;;;;;5058149;28;20047;-60
2021/12/24 14:42:39;;;;;;;2.78;0.80;;;5.60;99.90;;;;;;5056499;28;20045;-60
2021/12/24 14:45:27;;;;;;;2.50;1.00;;;5.50;99.90;;;;;;5056816;28;20052;-59